createdAt,value
2023-04-04T00:00:31.649Z,19.4
2023-04-04T00:06:08.709Z,19.5
2023-04-04T00:12:00.469Z,19.5
2023-04-04T00:17:37.029Z,19.4
2023-04-04T00:23:13.886Z,19.5
2023-04-04T00:29:05.408Z,19.4
2023-04-04T00:34:57.567Z,19.5
2023-04-04T00:40:33.328Z,19.5
2023-04-04T00:46:24.648Z,19.5
2023-04-04T00:52:02.470Z,19.5
2023-04-04T00:57:54.273Z,19.5
2023-04-04T01:03:47.004Z,19.5
2023-04-04T01:09:38.373Z,19.5
2023-04-04T01:15:14.253Z,19.5
2023-04-04T01:20:50.250Z,19.5
2023-04-04T01:26:26.232Z,19.5
2023-04-04T01:32:17.488Z,19.5
2023-04-04T01:38:10.436Z,19.6
2023-04-04T01:44:03.201Z,19.5
2023-04-04T01:49:41.637Z,19.5
2023-04-04T01:55:02.536Z,19.5
2023-04-04T02:00:54.560Z,19.5
2023-04-04T02:06:31.190Z,19.5
2023-04-04T02:12:22.266Z,19.5
2023-04-04T02:17:59.948Z,19.6
2023-04-04T02:23:37.761Z,19.6
2023-04-04T02:29:13.634Z,19.6
2023-04-04T02:35:05.346Z,19.6
2023-04-04T02:40:57.274Z,19.6
2023-04-04T02:46:54.724Z,19.6
2023-04-04T02:52:46.319Z,19.6
2023-04-04T02:58:38.147Z,19.6
2023-04-04T03:04:16.035Z,19.6
2023-04-04T03:10:06.937Z,19.6
2023-04-04T03:15:58.522Z,19.6
2023-04-04T03:21:34.985Z,19.6
2023-04-04T03:27:11.498Z,19.6
2023-04-04T03:33:03.326Z,19.6
2023-04-04T03:38:54.358Z,19.6
2023-04-04T03:44:46.117Z,19.8
2023-04-04T03:50:37.918Z,19.9
2023-04-04T03:56:29.357Z,20
2023-04-04T04:02:05.776Z,20
2023-04-04T04:07:59.571Z,20
2023-04-04T04:13:51.133Z,19.9
2023-04-04T04:19:43.641Z,19.9
2023-04-04T04:25:35.486Z,19.9
2023-04-04T04:31:26.896Z,19.9
2023-04-04T04:37:05.808Z,19.9
2023-04-04T04:42:56.892Z,19.9
2023-04-04T04:48:49.264Z,19.8
2023-04-04T04:54:41.686Z,19.8
2023-04-04T05:00:34.116Z,19.8
2023-04-04T05:06:26.125Z,19.8
2023-04-04T05:12:17.967Z,19.8
2023-04-04T05:18:11.188Z,19.8
2023-04-04T05:24:02.364Z,19.8
2023-04-04T05:29:54.218Z,19.8
2023-04-04T05:35:46.287Z,19.8
2023-04-04T05:41:38.861Z,19.8
2023-04-04T05:47:15.990Z,19.8
2023-04-04T05:53:07.495Z,19.8
2023-04-04T05:58:59.813Z,19.7
2023-04-04T06:04:52.375Z,19.6
2023-04-04T06:10:49.504Z,19.6
2023-04-04T06:16:43.448Z,19.6
2023-04-04T06:22:35.980Z,19.5
2023-04-04T06:28:27.464Z,19.4
2023-04-04T06:34:20.160Z,19.4
2023-04-04T06:40:12.082Z,19.4
2023-04-04T06:46:03.830Z,19.3
2023-04-04T06:51:40.478Z,19.3
2023-04-04T06:57:32.498Z,19.3
2023-04-04T07:03:25.552Z,19.3
2023-04-04T07:09:29.027Z,19.3
2023-04-04T07:15:21.508Z,19.3
2023-04-04T07:21:20.262Z,19.3
2023-04-04T07:27:12.263Z,19.3
2023-04-04T07:33:15.151Z,19.2
2023-04-04T07:39:06.767Z,19.3
2023-04-04T07:44:59.450Z,19.3
2023-04-04T07:50:35.360Z,19.2
2023-04-04T07:56:26.817Z,19.2
2023-04-04T08:02:19.227Z,19.2
2023-04-04T08:08:12.159Z,19.2
2023-04-04T08:14:04.275Z,19.2
2023-04-04T08:19:56.555Z,19.2
2023-04-04T08:25:50.051Z,19.2
2023-04-04T08:31:51.914Z,19.2
2023-04-04T08:37:57.702Z,19.2
2023-04-04T08:43:49.460Z,19.2
2023-04-04T08:49:42.241Z,19.2
2023-04-04T08:55:34.188Z,19.1
2023-04-04T09:01:27.851Z,19.1
2023-04-04T09:07:35.349Z,19.1
2023-04-04T09:13:39.115Z,19.1
2023-04-04T09:19:32.574Z,19.1
2023-04-04T09:25:24.272Z,19.1
2023-04-04T09:31:09.642Z,19.1
2023-04-04T09:37:02.220Z,19.1
2023-04-04T09:42:55.912Z,19.1
2023-04-04T09:49:08.721Z,19.1
2023-04-04T09:55:21.115Z,19.1
2023-04-04T10:01:29.767Z,19.1
2023-04-04T10:07:33.205Z,19.1
2023-04-04T10:13:38.967Z,19.1
2023-04-04T10:19:31.751Z,19.1
2023-04-04T10:25:35.514Z,19.1
2023-04-04T10:31:39.315Z,19.1
2023-04-04T10:37:34.280Z,19.1
2023-04-04T10:43:25.960Z,19.1
2023-04-04T10:49:17.492Z,19.1
2023-04-04T10:55:19.664Z,19.1
2023-04-04T11:01:12.259Z,19.1
2023-04-04T11:07:04.939Z,19
2023-04-04T11:13:28.692Z,18.9
2023-04-04T11:19:38.067Z,18.9
2023-04-04T11:25:29.740Z,18.9
2023-04-04T11:31:22.226Z,18.9
2023-04-04T11:37:28.047Z,18.9
2023-04-04T11:43:19.533Z,18.9
2023-04-04T11:49:11.693Z,18.9
2023-04-04T11:54:48.580Z,18.8
2023-04-04T12:00:49.599Z,18.8
2023-04-04T12:06:42.836Z,18.8
2023-04-04T12:12:34.405Z,18.8
2023-04-04T12:18:40.188Z,18.8
2023-04-04T12:24:34.075Z,18.8
2023-04-04T12:30:26.316Z,18.8
2023-04-04T12:36:18.282Z,18.8
2023-04-04T12:42:10.780Z,18.8
2023-04-04T12:48:02.845Z,18.8
2023-04-04T12:54:13.660Z,18.8
2023-04-04T13:00:15.176Z,18.8
2023-04-04T13:06:07.414Z,18.8
2023-04-04T13:11:59.317Z,18.8
2023-04-04T13:17:38.957Z,18.8
2023-04-04T13:23:30.843Z,18.8
2023-04-04T13:29:22.547Z,18.8
2023-04-04T13:35:15.445Z,18.8
2023-04-04T13:41:07.301Z,18.8
2023-04-04T13:46:59.249Z,18.6
2023-04-04T13:52:53.078Z,18.6
2023-04-04T13:59:08.450Z,18.6
2023-04-04T14:05:12.707Z,18.5
2023-04-04T14:11:13.252Z,18.5
2023-04-04T14:17:07.072Z,18.4
2023-04-04T14:22:59.660Z,18.5
2023-04-04T14:28:36.294Z,18.4
2023-04-04T14:34:29.877Z,18.4
2023-04-04T14:40:23.755Z,18.4
2023-04-04T14:46:15.980Z,18.3
2023-04-04T14:52:08.394Z,18.3
2023-04-04T14:58:18.303Z,18.3
2023-04-04T15:04:12.884Z,18.3
2023-04-04T15:10:06.581Z,18.3
2023-04-04T15:15:43.404Z,18.3
2023-04-04T15:21:20.698Z,18.2
2023-04-04T15:27:14.142Z,18.3
2023-04-04T15:33:09.549Z,18.3
2023-04-04T15:39:01.597Z,18.4
2023-04-04T15:44:58.776Z,18.3
2023-04-04T15:50:35.477Z,18.3
2023-04-04T15:56:28.087Z,18.3
2023-04-04T16:02:20.308Z,18.2
2023-04-04T16:08:12.131Z,18.2
2023-04-04T16:14:06.417Z,18.2
2023-04-04T16:19:59.893Z,18.2
2023-04-04T16:25:51.220Z,18.1
2023-04-04T16:31:44.151Z,18.1
2023-04-04T16:37:21.752Z,18.1
2023-04-04T16:43:02.833Z,18
2023-04-04T16:49:00.373Z,17.9
2023-04-04T16:54:55.504Z,17.9
2023-04-04T17:00:51.559Z,17.9
2023-04-04T17:06:51.701Z,17.8
2023-04-04T17:12:52.111Z,17.8
2023-04-04T17:18:52.151Z,17.8
2023-04-04T17:24:38.099Z,17.7
2023-04-04T17:30:22.525Z,17.7
2023-04-04T17:36:22.804Z,17.7
2023-04-04T17:42:07.462Z,17.7
2023-04-04T17:47:51.311Z,17.7
2023-04-04T17:53:37.002Z,17.7
2023-04-04T17:59:25.844Z,17.7
2023-04-04T18:05:24.080Z,17.7
2023-04-04T18:11:21.833Z,17.7
2023-04-04T18:17:29.837Z,17.7
2023-04-04T18:23:43.701Z,17.7
2023-04-04T18:29:43.307Z,17.7
2023-04-04T18:35:42.958Z,17.7
2023-04-04T18:41:26.803Z,17.7
2023-04-04T18:47:37.281Z,17.7
2023-04-04T18:53:22.238Z,17.7
2023-04-04T18:59:23.607Z,17.7
2023-04-04T19:05:28.205Z,17.6
2023-04-04T19:11:27.918Z,17.4
2023-04-04T19:17:31.102Z,17.6
2023-04-04T19:23:30.254Z,18.2
2023-04-04T19:29:16.473Z,19.2
2023-04-04T19:35:17.289Z,20.4
2023-04-04T19:41:17.789Z,21.8
2023-04-04T19:47:20.132Z,23
2023-04-04T19:53:20.878Z,24.3
2023-04-04T19:59:24.736Z,25.4
2023-04-04T20:05:33.918Z,26.3
2023-04-04T20:11:33.498Z,27.2
2023-04-04T20:17:33.739Z,27.7
2023-04-04T20:23:35.960Z,27.9
2023-04-04T20:29:19.439Z,28.1
2023-04-04T20:35:19.818Z,28.3
2023-04-04T20:41:22.466Z,28.3
2023-04-04T20:47:22.177Z,28.4
2023-04-04T20:53:22.667Z,28.4
2023-04-04T20:59:07.434Z,28.4
2023-04-04T21:05:11.080Z,28.4
2023-04-04T21:11:10.559Z,28.4
2023-04-04T21:16:53.619Z,28.4
2023-04-04T21:22:54.839Z,28.4
2023-04-04T21:28:54.920Z,28.4
2023-04-04T21:34:54.321Z,28.4
2023-04-04T21:40:49.464Z,28.4
2023-04-04T21:46:43.584Z,28.4
2023-04-04T21:52:37.845Z,28.4
2023-04-04T21:58:30.204Z,28.4
2023-04-04T22:04:23.042Z,28.3
2023-04-04T22:10:08.350Z,28.3
2023-04-04T22:16:03.020Z,28.3
2023-04-04T22:21:55.098Z,28.3
2023-04-04T22:27:46.308Z,28.3
2023-04-04T22:33:37.122Z,28.3
2023-04-04T22:39:30.090Z,28.2
2023-04-04T22:45:21.885Z,28.2
2023-04-04T22:50:58.989Z,28.2
2023-04-04T22:56:51.114Z,28.1
2023-04-04T23:02:43.265Z,28.1
2023-04-04T23:08:35.051Z,28.1
2023-04-04T23:14:11.913Z,28.1
2023-04-04T23:20:04.038Z,28.1
2023-04-04T23:25:55.080Z,28.1
2023-04-04T23:31:47.579Z,28.1
2023-04-04T23:37:39.109Z,28
2023-04-04T23:43:30.666Z,28
2023-04-04T23:49:07.429Z,27.9
2023-04-04T23:54:43.991Z,27.9
